Time;durP1;ratioP1;P1;durP2;ratioP2;P2;SDS_P1;SDS_P2;PMS_P1;PMS_P2;Temp;Humidity;BMP_temperature;BMP_pressure;BME280_temperature;BME280_humidity;BME280_pressure;Samples;Min_cycle;Max_cycle;Signal;HPM_P1;HPM_P2
2021/04/01 00:00:16;;;;;;;42.25;28.75;;;;;;;10.34;66.31;101796.63;1040431;28;20057;-84
2021/04/01 00:00:49;;;;;;;45.55;30.67;;;;;;;10.39;66.27;101807.13;1040472;28;20418;-84
2021/04/01 00:01:21;;;;;;;47.63;29.13;;;;;;;10.40;66.09;101801.13;1037196;28;20092;-84
2021/04/01 00:01:51;;;;;;;46.83;29.27;;;;;;;10.36;66.37;101794.09;1037410;28;20056;-84
2021/04/01 00:02:25;;;;;;;50.40;30.52;;;;;;;10.41;65.97;101797.69;1040445;28;20092;-84
2021/04/01 00:02:56;;;;;;;45.72;29.13;;;;;;;10.39;66.29;101795.91;1040688;28;20053;-84
2021/04/01 00:03:27;;;;;;;45.33;28.20;;;;;;;10.44;66.11;101799.53;1040476;28;20056;-84
2021/04/01 00:03:58;;;;;;;46.10;29.92;;;;;;;10.43;65.82;101795.16;1040420;28;20072;-84
2021/04/01 00:04:29;;;;;;;46.05;29.98;;;;;;;10.44;65.57;101795.22;1040348;28;20087;-84
2021/04/01 00:05:00;;;;;;;43.25;28.55;;;;;;;10.42;65.19;101789.09;1036669;28;20514;-84
2021/04/01 00:05:32;;;;;;;46.95;28.73;;;;;;;10.41;65.31;101791.66;1040352;28;20248;-84
2021/04/01 00:06:03;;;;;;;44.38;28.85;;;;;;;10.43;64.97;101790.84;1040352;28;20050;-84
2021/04/01 00:06:34;;;;;;;45.47;29.30;;;;;;;10.44;65.10;101795.22;1040964;28;20056;-84
2021/04/01 00:07:05;;;;;;;52.83;31.48;;;;;;;10.40;65.25;101790.78;1044575;28;20045;-84
2021/04/01 00:07:36;;;;;;;49.35;29.77;;;;;;;10.44;65.65;101791.75;1044190;28;20101;-84
2021/04/01 00:08:07;;;;;;;51.75;30.38;;;;;;;10.37;65.43;101789.78;1040759;28;20199;-84
2021/04/01 00:08:39;;;;;;;53.70;30.65;;;;;;;10.41;65.81;101792.53;1040540;28;20063;-83
2021/04/01 00:09:11;;;;;;;47.67;30.20;;;;;;;10.31;65.65;101777.53;1040314;28;20085;-83
2021/04/01 00:09:42;;;;;;;54.33;29.55;;;;;;;10.31;65.36;101774.97;1040819;28;20087;-84
2021/04/01 00:10:16;;;;;;;54.17;31.00;;;;;;;10.42;65.70;101796.00;1044567;28;20081;-84
2021/04/01 00:10:47;;;;;;;55.38;30.90;;;;;;;10.40;65.18;101787.31;1039801;28;20061;-84
2021/04/01 00:11:18;;;;;;;47.17;29.55;;;;;;;10.39;65.23;101780.38;1041355;28;20101;-84
2021/04/01 00:11:49;;;;;;;46.47;29.50;;;;;;;10.44;65.36;101790.03;1039496;28;20448;-84
2021/04/01 00:12:20;;;;;;;44.80;29.00;;;;;;;10.40;64.73;101784.72;1036709;28;20050;-84
2021/04/01 00:12:52;;;;;;;45.30;30.20;;;;;;;10.46;65.47;101787.50;1032518;28;20547;-84
2021/04/01 00:13:23;;;;;;;44.28;28.88;;;;;;;10.39;64.75;101776.09;1032212;28;20046;-84
2021/04/01 00:13:55;;;;;;;45.33;30.02;;;;;;;10.44;64.49;101792.63;1032425;28;20058;-84
2021/04/01 00:14:26;;;;;;;46.72;30.60;;;;;;;10.39;64.82;101778.69;1035983;28;20501;-84
2021/04/01 00:14:57;;;;;;;48.28;29.83;;;;;;;10.45;64.68;101780.56;1036850;28;20050;-84
2021/04/01 00:15:28;;;;;;;53.03;31.75;;;;;;;10.45;64.56;101788.34;1036268;28;20184;-84
2021/04/01 00:15:59;;;;;;;48.13;31.02;;;;;;;10.46;64.66;101784.91;1040086;28;20124;-84
2021/04/01 00:16:34;;;;;;;48.80;30.02;;;;;;;10.45;64.26;101784.03;1036237;28;20075;-84
2021/04/01 00:17:06;;;;;;;47.95;30.75;;;;;;;10.43;64.86;101790.84;1033032;28;20133;-84
2021/04/01 00:17:39;;;;;;;50.50;29.05;;;;;;;10.44;64.48;101787.47;1039874;28;20142;-84
2021/04/01 00:18:18;;;;;;;50.53;30.83;;;;;;;10.40;64.66;101785.59;1041623;28;20057;-84
2021/04/01 00:18:49;;;;;;;47.17;30.13;;;;;;;10.41;64.62;101779.59;1042131;28;20480;-84
2021/04/01 00:19:20;;;;;;;53.53;30.98;;;;;;;10.44;64.57;101790.03;1040018;28;20049;-84
2021/04/01 00:19:51;;;;;;;54.55;33.63;;;;;;;10.40;64.63;101787.31;1036344;28;20111;-84
2021/04/01 00:20:22;;;;;;;46.80;31.20;;;;;;;10.43;64.75;101787.38;1036302;28;20528;-84
2021/04/01 00:20:54;;;;;;;51.90;32.33;;;;;;;10.44;64.41;101789.16;1036078;28;20054;-84
2021/04/01 00:21:27;;;;;;;46.15;29.92;;;;;;;10.42;64.10;101789.09;1037037;28;20057;-84
2021/04/01 00:21:59;;;;;;;49.38;31.20;;;;;;;10.42;63.93;101786.50;1036253;28;20050;-84
2021/04/01 00:22:30;;;;;;;50.78;31.65;;;;;;;10.34;63.97;101775.06;1033695;28;20062;-84
2021/04/01 00:23:01;;;;;;;52.35;32.55;;;;;;;10.37;63.88;101782.91;1036993;28;20563;-84
2021/04/01 00:23:32;;;;;;;46.08;30.98;;;;;;;10.37;64.27;101785.50;1040675;28;20140;-84
2021/04/01 00:24:03;;;;;;;45.08;30.35;;;;;;;10.34;64.44;101783.69;1043422;28;20061;-84
2021/04/01 00:24:34;;;;;;;43.33;27.42;;;;;;;10.29;64.57;101779.22;1040230;28;20057;-84
2021/04/01 00:25:07;;;;;;;47.38;29.65;;;;;;;10.26;64.98;101779.97;1036462;28;20544;-84
2021/04/01 00:25:39;;;;;;;44.17;29.80;;;;;;;10.31;64.91;101788.75;1032899;28;20412;-84
2021/04/01 00:26:10;;;;;;;46.28;29.23;;;;;;;10.30;65.13;101784.44;1032387;28;20050;-84
2021/04/01 00:26:41;;;;;;;48.38;29.08;;;;;;;10.29;65.45;101784.38;1037472;28;20108;-84
2021/04/01 00:27:12;;;;;;;51.88;29.55;;;;;;;10.30;65.27;101787.00;1036632;28;20185;-84
2021/04/01 00:27:43;;;;;;;42.72;26.50;;;;;;;10.24;65.50;101778.19;1040836;28;20136;-84
2021/04/01 00:28:14;;;;;;;43.78;27.95;;;;;;;10.27;65.70;101781.78;1040457;28;20051;-84
2021/04/01 00:28:46;;;;;;;41.65;27.48;;;;;;;10.27;65.77;101778.31;1039092;28;20045;-84
2021/04/01 00:29:17;;;;;;;50.83;30.60;;;;;;;10.27;65.59;101779.19;1041094;28;20049;-84
2021/04/01 00:29:48;;;;;;;45.22;29.52;;;;;;;10.23;65.52;101772.16;1040758;28;20084;-84
2021/04/01 00:30:19;;;;;;;47.85;29.98;;;;;;;10.23;65.54;101769.56;1041070;28;20052;-84
2021/04/01 00:30:50;;;;;;;45.97;29.33;;;;;;;10.29;65.67;101785.25;1040410;28;20132;-84
2021/04/01 00:31:22;;;;;;;47.47;30.05;;;;;;;10.22;65.79;101772.94;1040293;28;20077;-84
2021/04/01 00:31:53;;;;;;;45.33;28.27;;;;;;;10.20;64.99;101764.25;1036232;28;20073;-84
2021/04/01 00:32:24;;;;;;;45.13;28.50;;;;;;;10.29;65.23;101779.22;1036272;28;20538;-84
2021/04/01 00:32:55;;;;;;;46.80;30.05;;;;;;;10.30;64.94;101779.25;1040329;28;20127;-84
2021/04/01 00:33:26;;;;;;;47.85;29.95;;;;;;;10.32;64.41;101782.78;1040838;28;20081;-84
2021/04/01 00:33:58;;;;;;;48.75;30.23;;;;;;;10.37;65.61;101780.31;1040276;28;20180;-84
2021/04/01 00:34:29;;;;;;;49.22;30.40;;;;;;;10.30;66.07;101768.91;1036375;28;20111;-84
2021/04/01 00:35:00;;;;;;;45.97;30.10;;;;;;;10.25;66.06;101767.88;1032137;28;20105;-84
2021/04/01 00:35:31;;;;;;;47.65;30.52;;;;;;;10.24;66.21;101779.06;1036131;28;20050;-84
2021/04/01 00:36:03;;;;;;;40.95;26.35;;;;;;;10.25;66.32;101786.00;1040744;28;20049;-84
2021/04/01 00:36:34;;;;;;;44.40;26.75;;;;;;;10.17;66.59;101774.50;1040286;28;20053;-84
2021/04/01 00:37:05;;;;;;;44.25;28.05;;;;;;;10.15;66.55;101776.16;1039298;28;20571;-84
2021/04/01 00:37:36;;;;;;;45.35;28.20;;;;;;;10.16;66.49;101777.94;1036205;28;20125;-84
2021/04/01 00:38:07;;;;;;;50.90;31.13;;;;;;;10.19;66.23;101779.72;1036063;28;20476;-84
2021/04/01 00:38:38;;;;;;;45.55;28.52;;;;;;;10.19;66.40;101771.97;1039100;28;20470;-84
2021/04/01 00:39:10;;;;;;;44.53;28.52;;;;;;;10.18;66.35;101770.22;1044284;28;20533;-83
2021/04/01 00:39:41;;;;;;;47.45;28.75;;;;;;;10.19;66.29;101761.63;1044089;28;20106;-84
2021/04/01 00:40:13;;;;;;;46.42;27.77;;;;;;;10.22;66.49;101770.38;1040047;28;20513;-84
2021/04/01 00:40:44;;;;;;;46.00;28.23;;;;;;;10.23;66.29;101766.06;1040183;28;20514;-84
2021/04/01 00:41:16;;;;;;;47.70;28.08;;;;;;;10.29;66.20;101777.50;1036785;28;20406;-84
2021/04/01 00:41:48;;;;;;;45.50;29.30;;;;;;;10.29;66.43;101776.63;1041032;28;20049;-84
2021/04/01 00:42:19;;;;;;;44.22;27.50;;;;;;;10.27;66.56;101771.41;1043721;28;20053;-84
2021/04/01 00:42:50;;;;;;;43.30;28.50;;;;;;;10.28;66.21;101780.06;1036214;28;20056;-84
2021/04/01 00:43:21;;;;;;;42.50;28.30;;;;;;;10.26;66.00;101779.09;1036396;28;20046;-84
2021/04/01 00:43:52;;;;;;;46.58;29.02;;;;;;;10.23;65.85;101768.66;1036140;28;20045;-84
2021/04/01 00:44:23;;;;;;;46.03;30.30;;;;;;;10.28;65.72;101774.88;1032466;28;20062;-84
2021/04/01 00:45:03;;;;;;;46.00;29.55;;;;;;;10.31;65.51;101775.84;1032660;28;20189;-84
2021/04/01 00:45:34;;;;;;;49.58;29.08;;;;;;;10.31;65.33;101773.25;1033330;28;20430;-84
2021/04/01 00:46:05;;;;;;;48.25;30.23;;;;;;;10.26;65.45;101761.88;1037562;28;20053;-84
2021/04/01 00:46:36;;;;;;;45.90;28.52;;;;;;;10.33;65.39;101774.19;1041546;28;20057;-83
2021/04/01 00:47:08;;;;;;;45.53;30.05;;;;;;;10.30;65.42;101768.91;1040173;28;20124;-84
2021/04/01 00:47:44;;;;;;;47.28;28.42;;;;;;;10.31;65.37;101770.66;1035975;28;20375;-84
2021/04/01 00:48:15;;;;;;;48.42;30.30;;;;;;;10.30;65.61;101766.31;1037564;28;20502;-84
2021/04/01 00:48:46;;;;;;;45.67;28.95;;;;;;;10.34;65.43;101775.94;1040520;28;20081;-84
2021/04/01 00:49:17;;;;;;;45.13;29.35;;;;;;;10.30;65.48;101758.56;1040037;28;20136;-84
2021/04/01 00:49:48;;;;;;;47.45;30.00;;;;;;;10.33;66.17;101776.78;1037417;28;20049;-84
2021/04/01 00:50:28;;;;;;;47.60;30.02;;;;;;;10.33;66.29;101770.72;1040591;28;20048;-84
2021/04/01 00:50:59;;;;;;;42.63;28.30;;;;;;;10.32;66.17;101777.63;1040225;28;20101;-84
2021/04/01 00:51:30;;;;;;;52.05;31.52;;;;;;;10.28;66.23;101768.00;1036225;28;20301;-84
2021/04/01 00:52:02;;;;;;;47.25;29.75;;;;;;;10.25;66.69;101767.88;1033527;28;20399;-84
2021/04/01 00:52:33;;;;;;;46.03;29.63;;;;;;;10.29;66.49;101769.75;1036697;28;20061;-83
2021/04/01 00:53:04;;;;;;;43.03;27.75;;;;;;;10.23;66.76;101759.22;1036033;28;20056;-85
2021/04/01 00:53:35;;;;;;;44.35;28.38;;;;;;;10.21;66.82;101768.63;1036726;28;20049;-84
2021/04/01 00:54:07;;;;;;;46.20;29.35;;;;;;;10.21;66.85;101765.13;1036507;28;20049;-84
2021/04/01 00:54:38;;;;;;;46.78;29.98;;;;;;;10.26;66.22;101768.75;1032469;28;20092;-83
2021/04/01 00:55:10;;;;;;;47.60;30.05;;;;;;;10.26;66.60;101768.75;1040297;28;20175;-84
2021/04/01 00:55:41;;;;;;;47.60;29.38;;;;;;;10.26;66.62;101769.63;1036698;28;20064;-84
2021/04/01 00:56:12;;;;;;;42.90;28.58;;;;;;;10.26;66.74;101767.06;1040645;28;20057;-84
2021/04/01 00:56:43;;;;;;;46.13;29.35;;;;;;;10.26;66.75;101766.19;1040302;28;20096;-84
2021/04/01 00:57:14;;;;;;;49.92;29.73;;;;;;;10.19;67.26;101765.09;1036008;28;20437;-84
2021/04/01 00:57:50;;;;;;;41.15;28.05;;;;;;;10.18;67.30;101760.75;1036329;28;20151;-84
2021/04/01 00:58:21;;;;;;;49.13;29.30;;;;;;;10.23;67.52;101769.56;1041053;28;20059;-84
2021/04/01 00:58:53;;;;;;;45.50;29.08;;;;;;;10.21;67.59;101758.28;1041659;28;20053;-84
2021/04/01 00:59:25;;;;;;;40.35;27.70;;;;;;;10.19;67.61;101764.22;1040007;28;20085;-84
2021/04/01 00:59:57;;;;;;;40.15;27.77;;;;;;;10.21;67.42;101765.13;1040405;28;20046;-84
2021/04/01 01:00:33;;;;;;;47.05;30.13;;;;;;;10.19;67.59;101764.22;1040903;28;20060;-84
2021/04/01 01:01:20;;;;;;;44.15;27.50;;;;;;;10.17;67.54;101766.75;1041249;28;20045;-84
2021/04/01 01:01:54;;;;;;;43.08;27.27;;;;;;;10.11;67.81;101771.72;1041622;28;20386;-84
2021/04/01 01:02:25;;;;;;;38.67;25.73;;;;;;;10.11;67.77;101763.09;1039356;28;20583;-84
2021/04/01 01:02:57;;;;;;;43.08;27.60;;;;;;;10.10;67.94;101767.41;1038770;28;20084;-84
2021/04/01 01:03:28;;;;;;;41.17;28.58;;;;;;;10.06;67.59;101756.06;1036003;28;20398;-84
2021/04/01 01:03:59;;;;;;;50.63;30.20;;;;;;;10.07;67.59;101756.94;1032395;28;20556;-84
2021/04/01 01:04:34;;;;;;;51.80;29.50;;;;;;;10.11;67.13;101763.97;1036395;28;20417;-84
2021/04/01 01:05:06;;;;;;;44.35;27.08;;;;;;;10.12;67.21;101765.72;1035886;28;20076;-84
2021/04/01 01:05:37;;;;;;;47.83;29.00;;;;;;;10.14;67.40;101761.47;1031816;28;20042;-84
2021/04/01 01:06:08;;;;;;;44.47;28.00;;;;;;;10.15;67.71;101763.22;1035199;28;20058;-84
2021/04/01 01:06:40;;;;;;;36.65;26.77;;;;;;;10.16;67.59;101761.53;1036860;28;20106;-84
2021/04/01 01:07:12;;;;;;;38.88;26.25;;;;;;;10.14;67.88;101758.00;1040682;28;20051;-84
2021/04/01 01:07:43;;;;;;;42.15;26.42;;;;;;;10.16;67.81;101761.53;1040050;28;20083;-84
2021/04/01 01:08:14;;;;;;;43.85;28.13;;;;;;;10.18;68.00;101760.75;1036699;28;20075;-84
2021/04/01 01:08:45;;;;;;;36.65;24.75;;;;;;;10.20;68.25;101763.38;1040130;28;20140;-84
2021/04/01 01:09:16;;;;;;;45.00;29.33;;;;;;;10.15;68.26;101763.22;1040681;28;20049;-84
2021/04/01 01:09:47;;;;;;;41.67;27.58;;;;;;;10.16;68.27;101764.13;1040105;28;20080;-84
2021/04/01 01:10:27;;;;;;;45.38;26.40;;;;;;;10.07;68.17;101746.59;1040222;28;20124;-84
2021/04/01 01:10:58;;;;;;;39.58;26.08;;;;;;;10.14;68.20;101753.72;1035828;28;20048;-84
2021/04/01 01:11:29;;;;;;;44.85;29.58;;;;;;;10.16;67.25;101758.97;1037673;28;20046;-84
2021/04/01 01:12:02;;;;;;;43.28;29.02;;;;;;;10.17;67.71;101755.53;1042244;28;20045;-84
2021/04/01 01:12:33;;;;;;;42.45;27.58;;;;;;;10.12;68.25;101750.22;1040442;28;20051;-84
2021/04/01 01:13:05;;;;;;;43.95;27.90;;;;;;;10.06;68.73;101735.38;1039986;28;20060;-83
2021/04/01 01:13:39;;;;;;;47.35;28.92;;;;;;;10.06;68.53;101747.44;1040229;28;20193;-84
2021/04/01 01:14:10;;;;;;;39.47;26.35;;;;;;;10.06;68.34;101750.91;1036640;28;20050;-84
2021/04/01 01:14:41;;;;;;;40.85;27.63;;;;;;;10.05;68.30;101749.16;1037311;28;20057;-84
2021/04/01 01:15:13;;;;;;;40.85;27.80;;;;;;;10.06;67.99;101748.31;1040033;28;20451;-84
2021/04/01 01:15:44;;;;;;;40.63;27.13;;;;;;;10.02;68.06;101743.88;1035233;28;20053;-84
2021/04/01 01:16:15;;;;;;;45.67;27.83;;;;;;;10.05;68.50;101743.97;1032529;28;20057;-84
2021/04/01 01:16:47;;;;;;;41.80;27.80;;;;;;;9.98;68.49;101743.72;1036427;28;20056;-83
2021/04/01 01:17:19;;;;;;;47.78;29.17;;;;;;;10.05;68.05;101749.16;1036423;28;20046;-84
2021/04/01 01:17:52;;;;;;;45.67;30.08;;;;;;;10.06;68.10;101743.16;1036449;28;20582;-84
2021/04/01 01:18:26;;;;;;;42.83;27.65;;;;;;;10.03;68.85;101742.16;1039465;28;20172;-84
2021/04/01 01:18:59;;;;;;;41.53;27.40;;;;;;;10.00;68.41;101742.94;1038390;28;20041;-84
2021/04/01 01:19:37;;;;;;;48.80;28.98;;;;;;;10.05;68.22;101741.41;1044342;28;20051;-84
2021/04/01 01:20:10;;;;;;;44.00;27.70;;;;;;;10.01;68.05;101738.66;1040069;28;20052;-84
2021/04/01 01:20:43;;;;;;;48.08;28.55;;;;;;;10.04;67.94;101739.66;1038530;28;20052;-84
2021/04/01 01:21:22;;;;;;;52.83;29.25;;;;;;;10.06;67.61;101735.38;1040121;28;20128;-84
2021/04/01 01:21:55;;;;;;;47.85;30.48;;;;;;;10.10;67.53;101731.19;1041938;28;20109;-84
2021/04/01 01:22:26;;;;;;;47.67;30.83;;;;;;;10.06;67.44;101719.88;1046113;28;20432;-84
2021/04/01 01:22:57;;;;;;;48.03;31.13;;;;;;;10.14;67.21;101726.97;1042455;28;20053;-84
2021/04/01 01:23:29;;;;;;;45.80;30.33;;;;;;;10.12;67.13;101714.03;1037906;28;20160;-84
2021/04/01 01:24:01;;;;;;;47.92;30.75;;;;;;;10.18;66.92;101721.09;1035923;28;20091;-84
2021/04/01 01:24:34;;;;;;;48.63;30.52;;;;;;;10.23;66.20;101719.53;1036687;28;20050;-84
2021/04/01 01:25:08;;;;;;;55.35;32.25;;;;;;;10.30;65.95;101718.91;1036714;28;20135;-84
2021/04/01 01:25:40;;;;;;;49.40;30.42;;;;;;;10.33;65.49;101712.13;1041036;28;20049;-84
2021/04/01 01:26:11;;;;;;;47.50;30.33;;;;;;;10.34;65.62;101708.69;1040036;28;20405;-84
2021/04/01 01:26:43;;;;;;;45.58;29.27;;;;;;;10.23;66.03;101701.41;1040232;28;20045;-84
2021/04/01 01:27:14;;;;;;;46.85;30.77;;;;;;;10.28;66.31;101707.63;1040263;28;20069;-84
2021/04/01 01:27:46;;;;;;;47.70;28.40;;;;;;;10.29;66.20;101704.22;1035881;28;20618;-84
2021/04/01 01:28:17;;;;;;;43.03;29.58;;;;;;;10.27;66.19;101717.13;1035880;28;20108;-85
2021/04/01 01:28:49;;;;;;;48.03;28.65;;;;;;;10.20;66.30;101694.44;1039099;28;20434;-84
2021/04/01 01:29:20;;;;;;;52.97;30.40;;;;;;;10.24;66.67;101703.19;1040573;28;20046;-84
2021/04/01 01:29:51;;;;;;;48.10;30.08;;;;;;;10.21;66.36;101698.78;1044309;28;20041;-84
2021/04/01 01:30:22;;;;;;;50.00;30.85;;;;;;;10.21;66.98;101703.06;1043667;28;20053;-84
2021/04/01 01:30:53;;;;;;;45.53;28.20;;;;;;;10.20;67.34;101706.47;1039942;28;20060;-84
2021/04/01 01:31:25;;;;;;;42.55;27.38;;;;;;;10.14;67.23;101701.13;1036103;28;20442;-84
2021/04/01 01:31:56;;;;;;;50.42;31.83;;;;;;;10.15;68.05;101714.09;1034047;28;20514;-84
2021/04/01 01:32:35;;;;;;;47.05;29.77;;;;;;;10.11;68.66;101709.69;1035723;28;20514;-84
2021/04/01 01:33:08;;;;;;;49.92;30.40;;;;;;;9.95;69.54;101716.06;1037611;28;20141;-84
2021/04/01 01:33:43;;;;;;;46.92;29.55;;;;;;;9.85;69.51;101707.97;1041458;28;20053;-84
2021/04/01 01:34:14;;;;;;;47.55;29.17;;;;;;;9.76;69.95;101713.75;1042428;28;20049;-84
2021/04/01 01:34:46;;;;;;;48.88;28.98;;;;;;;9.74;69.93;101705.94;1040109;28;20056;-84
2021/04/01 01:35:22;;;;;;;45.08;28.67;;;;;;;9.82;69.88;101720.00;1035989;28;20073;-84
2021/04/01 01:35:54;;;;;;;45.25;28.13;;;;;;;9.85;69.86;101723.50;1037065;28;20137;-84
2021/04/01 01:36:25;;;;;;;49.42;30.08;;;;;;;9.81;69.00;101722.50;1037371;28;20140;-84
2021/04/01 01:36:56;;;;;;;45.13;28.92;;;;;;;9.79;69.22;101734.50;1037203;28;20057;-84
2021/04/01 01:37:27;;;;;;;44.28;28.20;;;;;;;9.78;69.46;101731.03;1035961;28;20120;-84
2021/04/01 01:38:04;;;;;;;44.08;28.23;;;;;;;9.70;70.33;101718.69;1032152;28;20499;-84
2021/04/01 01:38:35;;;;;;;42.83;28.27;;;;;;;9.64;70.92;101732.28;1036815;28;20045;-84
2021/04/01 01:39:06;;;;;;;46.30;28.15;;;;;;;9.65;71.71;101740.94;1041310;28;20122;-84
2021/04/01 01:39:37;;;;;;;42.53;28.60;;;;;;;9.62;71.80;101741.72;1044974;28;20045;-84
2021/04/01 01:40:09;;;;;;;42.22;28.70;;;;;;;9.61;71.69;101734.78;1043608;28;20175;-84
2021/04/01 01:40:40;;;;;;;49.45;28.95;;;;;;;9.58;71.63;101732.09;1044228;28;20636;-84
2021/04/01 01:41:11;;;;;;;43.10;28.73;;;;;;;9.63;71.61;101738.28;1039991;28;20050;-84
2021/04/01 01:41:42;;;;;;;46.92;27.63;;;;;;;9.67;71.32;101736.69;1036399;28;20050;-84
2021/04/01 01:42:13;;;;;;;40.38;26.88;;;;;;;9.70;71.34;101739.38;1036052;28;20053;-84
2021/04/01 01:42:45;;;;;;;44.33;29.35;;;;;;;9.66;71.35;101730.66;1032115;28;20050;-84
2021/04/01 01:43:16;;;;;;;42.28;28.08;;;;;;;9.76;71.11;101742.19;1033661;28;20050;-84
2021/04/01 01:43:49;;;;;;;43.95;29.42;;;;;;;9.73;71.44;101730.03;1036278;28;20050;-84
2021/04/01 01:44:20;;;;;;;49.35;29.35;;;;;;;9.80;71.04;101733.66;1036608;28;20103;-84
2021/04/01 01:44:51;;;;;;;39.67;27.58;;;;;;;9.77;70.96;101725.84;1035728;28;20061;-84
2021/04/01 01:45:23;;;;;;;45.85;28.80;;;;;;;9.76;69.81;101722.38;1032112;28;20050;-84
2021/04/01 01:45:54;;;;;;;42.78;28.98;;;;;;;9.77;69.99;101728.41;1032270;28;20050;-84
2021/04/01 01:46:25;;;;;;;45.13;29.90;;;;;;;9.78;69.96;101719.84;1035842;28;20056;-84
2021/04/01 01:46:57;;;;;;;44.08;29.85;;;;;;;9.81;70.36;101733.75;1032290;28;20073;-84
2021/04/01 01:47:28;;;;;;;39.63;25.83;;;;;;;9.80;70.02;101723.34;1036445;28;20061;-84
2021/04/01 01:48:00;;;;;;;42.25;28.45;;;;;;;9.86;69.68;101736.44;1040149;28;20621;-84
2021/04/01 01:48:31;;;;;;;42.65;27.38;;;;;;;9.79;69.60;101717.28;1039945;28;20053;-84
2021/04/01 01:49:02;;;;;;;43.63;28.20;;;;;;;9.81;69.84;101728.56;1036216;28;20050;-84
2021/04/01 01:49:40;;;;;;;40.47;26.90;;;;;;;9.73;70.19;101724.84;1040432;28;20397;-84
2021/04/01 01:50:13;;;;;;;44.67;26.02;;;;;;;9.82;70.00;101735.50;1039912;28;20049;-84
2021/04/01 01:50:45;;;;;;;41.75;25.25;;;;;;;9.77;70.10;101731.88;1037386;28;20502;-84
2021/04/01 01:51:16;;;;;;;46.78;28.25;;;;;;;9.83;70.29;101739.84;1036074;28;20053;-84
2021/04/01 01:51:47;;;;;;;39.40;25.70;;;;;;;9.82;70.44;101750.13;1036535;28;20061;-84
2021/04/01 01:52:18;;;;;;;41.10;27.73;;;;;;;9.79;69.96;101734.50;1036362;28;20517;-84
2021/04/01 01:52:49;;;;;;;36.17;24.58;;;;;;;9.87;69.69;101745.09;1036257;28;20405;-84
2021/04/01 01:53:20;;;;;;;46.92;29.60;;;;;;;9.83;69.11;101737.25;1036274;28;20089;-84
2021/04/01 01:53:52;;;;;;;43.45;28.83;;;;;;;9.83;69.44;101731.19;1039773;28;20179;-84
2021/04/01 01:54:23;;;;;;;52.63;30.15;;;;;;;9.82;68.77;101730.31;1036793;28;20430;-84
2021/04/01 01:54:54;;;;;;;43.83;27.80;;;;;;;9.91;69.34;101740.06;1036103;28;20514;-84
2021/04/01 01:55:26;;;;;;;42.00;27.52;;;;;;;9.90;69.37;101748.66;1036242;28;20108;-84
2021/04/01 01:55:57;;;;;;;43.28;27.52;;;;;;;9.92;69.27;101740.94;1036321;28;20050;-83
2021/04/01 01:56:28;;;;;;;42.90;27.95;;;;;;;9.93;69.19;101751.34;1039982;28;20045;-84
2021/04/01 01:56:59;;;;;;;42.78;27.25;;;;;;;9.93;69.73;101743.59;1036346;28;20053;-84
2021/04/01 01:57:31;;;;;;;41.30;27.50;;;;;;;9.94;69.58;101750.50;1039988;28;20513;-83
2021/04/01 01:58:03;;;;;;;44.08;26.13;;;;;;;9.89;69.13;101739.16;1037042;28;20132;-84
2021/04/01 01:58:34;;;;;;;37.45;26.15;;;;;;;9.95;68.92;101748.81;1036013;28;20485;-84
2021/04/01 01:59:05;;;;;;;44.58;27.70;;;;;;;9.94;68.59;101744.47;1035734;28;20050;-83
2021/04/01 01:59:36;;;;;;;39.22;27.50;;;;;;;9.96;69.03;101753.13;1038470;28;20423;-84
2021/04/01 02:00:13;;;;;;;49.03;27.30;;;;;;;9.94;69.48;101752.22;1044439;28;20059;-84
2021/04/01 02:00:48;;;;;;;42.65;26.58;;;;;;;9.93;69.35;101758.22;1044567;28;20053;-84
2021/04/01 02:01:21;;;;;;;41.55;27.58;;;;;;;9.92;69.43;101752.16;1039792;28;20091;-84
2021/04/01 02:01:52;;;;;;;40.90;27.85;;;;;;;9.92;69.35;101753.88;1035835;28;20050;-84
2021/04/01 02:02:23;;;;;;;43.30;26.58;;;;;;;9.89;69.30;101754.66;1037179;28;20050;-84
2021/04/01 02:03:03;;;;;;;42.80;26.52;;;;;;;9.94;69.34;101758.28;1036391;28;20057;-84
2021/04/01 02:03:34;;;;;;;41.72;29.00;;;;;;;9.96;68.72;101755.72;1035316;28;20049;-84
2021/04/01 02:04:06;;;;;;;46.25;28.30;;;;;;;9.98;68.60;101757.56;1035857;28;20050;-84
2021/04/01 02:04:37;;;;;;;49.17;28.20;;;;;;;10.00;68.31;101758.47;1039593;28;20049;-84
2021/04/01 02:05:08;;;;;;;43.22;27.23;;;;;;;10.00;68.39;101757.59;1037071;28;20498;-84
2021/04/01 02:05:41;;;;;;;49.80;27.67;;;;;;;10.00;68.42;101763.63;1036417;28;20181;-84
2021/04/01 02:06:18;;;;;;;43.03;28.20;;;;;;;9.98;68.61;101760.13;1039991;28;20056;-84
2021/04/01 02:06:49;;;;;;;44.42;28.67;;;;;;;10.00;68.59;101758.47;1037395;28;20097;-84
2021/04/01 02:07:21;;;;;;;44.13;28.77;;;;;;;9.97;68.27;101745.44;1040037;28;20049;-84
2021/04/01 02:07:53;;;;;;;48.50;30.70;;;;;;;9.96;68.01;101738.50;1035764;28;20053;-84
2021/04/01 02:08:24;;;;;;;53.47;29.65;;;;;;;10.06;68.22;101747.44;1037218;28;20054;-84
2021/04/01 02:08:57;;;;;;;46.47;27.30;;;;;;;10.06;68.65;101742.28;1036567;28;20532;-84
2021/04/01 02:09:28;;;;;;;48.10;30.05;;;;;;;10.10;68.68;101754.47;1036700;28;20053;-84
2021/04/01 02:09:59;;;;;;;47.45;29.55;;;;;;;10.11;68.36;101755.34;1035792;28;20049;-84
2021/04/01 02:10:34;;;;;;;48.33;28.85;;;;;;;10.10;68.24;101757.06;1036612;28;20128;-84
2021/04/01 02:11:07;;;;;;;45.60;27.67;;;;;;;10.08;68.02;101753.53;1036824;28;20049;-84
2021/04/01 02:11:38;;;;;;;45.15;27.83;;;;;;;10.02;68.53;101741.28;1040884;28;20413;-84
2021/04/01 02:12:09;;;;;;;44.45;28.23;;;;;;;10.12;68.09;101754.50;1039904;28;20502;-84
2021/04/01 02:12:44;;;;;;;46.05;28.88;;;;;;;10.19;67.30;101756.44;1036372;28;20050;-84
2021/04/01 02:13:17;;;;;;;48.55;29.35;;;;;;;10.16;68.10;101751.19;1035906;28;20061;-84
2021/04/01 02:13:48;;;;;;;46.92;28.80;;;;;;;10.20;67.47;101756.50;1037060;28;20053;-84
2021/04/01 02:14:19;;;;;;;48.35;30.25;;;;;;;10.22;67.67;101762.59;1035766;28;20054;-83
2021/04/01 02:14:50;;;;;;;54.00;30.60;;;;;;;10.17;68.49;101760.72;1036657;28;20054;-84
2021/04/01 02:15:25;;;;;;;46.35;29.70;;;;;;;10.16;68.65;101762.41;1035677;28;20045;-84
2021/04/01 02:15:57;;;;;;;47.65;27.77;;;;;;;10.23;67.36;101761.81;1035478;28;20056;-84
2021/04/01 02:16:28;;;;;;;45.65;28.25;;;;;;;10.25;67.18;101773.06;1036954;28;20132;-84
2021/04/01 02:16:59;;;;;;;47.20;28.02;;;;;;;10.27;67.42;101761.06;1040874;28;20139;-84
2021/04/01 02:17:30;;;;;;;45.95;30.05;;;;;;;10.24;67.20;101760.97;1043865;28;20063;-84
2021/04/01 02:18:02;;;;;;;48.35;29.27;;;;;;;10.30;66.97;101770.63;1040363;28;20111;-84
2021/04/01 02:18:33;;;;;;;46.47;28.17;;;;;;;10.30;67.02;101761.16;1040140;28;20061;-84
2021/04/01 02:19:04;;;;;;;45.33;29.20;;;;;;;10.38;67.00;101763.09;1035859;28;20049;-84
2021/04/01 02:19:36;;;;;;;45.03;29.10;;;;;;;10.33;67.05;101761.25;1035924;28;20548;-84
2021/04/01 02:20:10;;;;;;;52.80;29.15;;;;;;;10.32;67.62;101763.78;1036130;28;20050;-84
2021/04/01 02:20:47;;;;;;;43.95;28.15;;;;;;;10.23;67.93;101754.03;1036634;28;20050;-84
2021/04/01 02:21:20;;;;;;;50.17;28.48;;;;;;;10.23;67.46;101763.47;1040149;28;20046;-84
2021/04/01 02:21:51;;;;;;;44.63;26.00;;;;;;;10.23;67.94;101768.66;1035873;28;20050;-83
2021/04/01 02:22:22;;;;;;;46.00;27.58;;;;;;;10.13;68.32;101767.47;1035307;28;20161;-84
2021/04/01 02:22:53;;;;;;;45.55;26.73;;;;;;;10.13;69.25;101769.19;1035991;28;20438;-84
2021/04/01 02:23:29;;;;;;;42.80;26.48;;;;;;;10.05;69.73;101769.84;1036001;28;20423;-84
2021/04/01 02:24:00;;;;;;;49.22;28.15;;;;;;;10.03;69.82;101768.88;1036840;28;20049;-84
2021/04/01 02:24:31;;;;;;;44.13;26.90;;;;;;;10.03;69.95;101775.75;1036670;28;20053;-84
2021/04/01 02:25:04;;;;;;;40.50;25.90;;;;;;;10.00;69.94;101770.50;1035949;28;20136;-84
2021/04/01 02:25:36;;;;;;;42.63;26.17;;;;;;;9.98;69.87;101772.16;1036565;28;20069;-84
2021/04/01 02:26:07;;;;;;;41.58;25.92;;;;;;;9.96;70.09;101764.34;1039911;28;20049;-84